createdAt,value
2022-11-18T00:01:22.772Z,99146.78
2022-11-18T00:03:50.763Z,99150.28
2022-11-18T00:06:22.413Z,99147.13
2022-11-18T00:08:49.293Z,99149.22
2022-11-18T00:11:41.607Z,99146.81
2022-11-18T00:14:24.845Z,99155.13
2022-11-18T00:17:04.660Z,99155.38
2022-11-18T00:19:38.336Z,99147.59
2022-11-18T00:22:08.479Z,99156.38
2022-11-18T00:24:36.399Z,99166.13
2022-11-18T00:27:03.375Z,99163.59
2022-11-18T00:29:31.670Z,99172.13
2022-11-18T00:31:58.533Z,99172.25
2022-11-18T00:34:26.277Z,99174.22
2022-11-18T00:36:53.132Z,99177.03
2022-11-18T00:39:21.628Z,99180.59
2022-11-18T00:42:07.794Z,99178.75
2022-11-18T00:44:35.079Z,99189.72
2022-11-18T00:47:01.906Z,99196.81
2022-11-18T00:49:29.118Z,99197.66
2022-11-18T00:51:55.853Z,99200.34
2022-11-18T00:54:22.733Z,99192.03
2022-11-18T00:56:49.664Z,99200.59
2022-11-18T00:59:16.892Z,99205.69
2022-11-18T01:01:44.142Z,99206.88
2022-11-18T01:04:10.984Z,99201.03
2022-11-18T01:06:37.794Z,99212.38
2022-11-18T01:09:04.647Z,99207.84
2022-11-18T01:11:49.946Z,99213.22
2022-11-18T01:14:17.323Z,99222.00
2022-11-18T01:16:44.404Z,99219.78
2022-11-18T01:19:11.675Z,99227.13
2022-11-18T01:21:38.477Z,99226.59
2022-11-18T01:24:05.966Z,99237.09
2022-11-18T01:26:32.786Z,99232.69
2022-11-18T01:28:59.503Z,99237.72
2022-11-18T01:31:26.420Z,99239.03
2022-11-18T01:33:53.165Z,99254.63
2022-11-18T01:36:22.846Z,99250.44
2022-11-18T01:38:51.142Z,99259.00
2022-11-18T01:41:20.189Z,99254.34
2022-11-18T01:44:03.037Z,99260.56
2022-11-18T01:46:33.979Z,99264.69
2022-11-18T01:49:12.981Z,99262.59
2022-11-18T01:51:56.043Z,99271.97
2022-11-18T01:54:37.123Z,99266.94
2022-11-18T01:57:10.756Z,99259.59
2022-11-18T01:59:42.386Z,99270.09
2022-11-18T02:02:14.725Z,99266.41
2022-11-18T02:04:48.491Z,99273.50
2022-11-18T02:07:18.523Z,99273.50
2022-11-18T02:09:45.561Z,99274.09
2022-11-18T02:12:13.657Z,99279.59
2022-11-18T02:14:47.149Z,99280.19
2022-11-18T02:17:19.765Z,99283.22
2022-11-18T02:19:46.557Z,99283.09
2022-11-18T02:22:44.187Z,99285.53
2022-11-18T02:25:50.666Z,99291.81
2022-11-18T02:28:38.672Z,99295.81
2022-11-18T02:31:29.271Z,99292.13
2022-11-18T02:34:29.575Z,99297.97
2022-11-18T02:37:21.663Z,99299.81
2022-11-18T02:39:57.627Z,99308.00
2022-11-18T02:42:30.532Z,99309.44
2022-11-18T02:45:05.863Z,99308.59
2022-11-18T02:47:37.452Z,99311.75
2022-11-18T02:50:14.427Z,99315.16
2022-11-18T02:52:44.161Z,99309.50
2022-11-18T02:55:14.849Z,99305.56
2022-11-18T02:57:44.966Z,99306.41
2022-11-18T03:00:12.854Z,99307.56
2022-11-18T03:02:47.636Z,99307.25
2022-11-18T03:05:43.232Z,99306.69
2022-11-18T03:08:19.675Z,99314.63
2022-11-18T03:11:12.674Z,99323.16
2022-11-18T03:14:10.388Z,99318.63
2022-11-18T03:17:14.498Z,99326.56
2022-11-18T03:20:35.295Z,99324.00
2022-11-18T03:23:37.163Z,99330.22
2022-11-18T03:26:18.626Z,99333.38
2022-11-18T03:29:07.081Z,99330.22
2022-11-18T03:31:43.886Z,99343.97
2022-11-18T03:34:37.907Z,99348.94
2022-11-18T03:37:12.264Z,99351.06
2022-11-18T03:39:49.108Z,99360.84
2022-11-18T03:42:32.071Z,99361.09
2022-11-18T03:45:26.816Z,99368.47
2022-11-18T03:48:09.576Z,99367.03
2022-11-18T03:50:45.411Z,99372.94
2022-11-18T03:53:15.703Z,99373.19
2022-11-18T03:55:50.918Z,99385.31
2022-11-18T03:58:17.574Z,99388.38
2022-11-18T04:00:51.511Z,99385.47
2022-11-18T04:03:18.457Z,99382.06
2022-11-18T04:05:50.104Z,99381.34
2022-11-18T04:08:26.261Z,99386.84
2022-11-18T04:11:06.476Z,99398.44
2022-11-18T04:13:37.558Z,99398.69
2022-11-18T04:16:07.556Z,99401.50
2022-11-18T04:18:34.287Z,99402.88
2022-11-18T04:21:01.038Z,99404.22
2022-11-18T04:23:27.759Z,99405.34
2022-11-18T04:25:54.531Z,99410.97
2022-11-18T04:28:21.279Z,99412.41
2022-11-18T04:30:48.060Z,99409.72
2022-11-18T04:33:15.061Z,99409.28
2022-11-18T04:35:41.795Z,99420.50
2022-11-18T04:38:08.556Z,99419.06
2022-11-18T04:40:35.327Z,99420.03
2022-11-18T04:43:02.114Z,99421.63
2022-11-18T04:45:29.479Z,99426.41
2022-11-18T04:48:01.954Z,99433.88
2022-11-18T04:50:30.178Z,99434.97
2022-11-18T04:52:56.980Z,99426.44
2022-11-18T04:55:23.714Z,99434.72
2022-11-18T04:57:50.545Z,99442.91
2022-11-18T05:00:17.862Z,99449.13
2022-11-18T05:02:44.610Z,99455.50
2022-11-18T05:05:11.383Z,99465.53
2022-11-18T05:07:38.213Z,99466.13
2022-11-18T05:10:05.942Z,99466.97
2022-11-18T05:12:51.837Z,99468.94
2022-11-18T05:15:21.897Z,99470.63
2022-11-18T05:17:48.639Z,99475.06
2022-11-18T05:20:16.548Z,99482.88
2022-11-18T05:22:43.322Z,99478.22
2022-11-18T05:25:10.487Z,99476.63
2022-11-18T05:27:37.215Z,99483.13
2022-11-18T05:30:05.826Z,99486.03
2022-11-18T05:32:32.554Z,99485.06
2022-11-18T05:34:59.291Z,99483.63
2022-11-18T05:37:26.120Z,99484.09
2022-11-18T05:39:52.916Z,99480.94
2022-11-18T05:42:38.375Z,99488.22
2022-11-18T05:45:05.806Z,99495.81
2022-11-18T05:47:52.651Z,99503.13
2022-11-18T05:50:21.488Z,99501.66
2022-11-18T05:52:48.344Z,99512.91
2022-11-18T05:55:17.879Z,99509.69
2022-11-18T05:57:44.685Z,99508.25
2022-11-18T06:00:12.726Z,99515.56
2022-11-18T06:02:43.617Z,99522.00
2022-11-18T06:05:13.614Z,99520.44
2022-11-18T06:07:44.533Z,99521.38
2022-11-18T06:10:25.052Z,99526.03
2022-11-18T06:12:58.285Z,99536.03
2022-11-18T06:15:40.691Z,99536.25
2022-11-18T06:18:28.577Z,99534.56
2022-11-18T06:21:01.363Z,99544.78
2022-11-18T06:23:34.635Z,99547.69
2022-11-18T06:26:02.013Z,99552.34
2022-11-18T06:28:30.522Z,99554.16
2022-11-18T06:30:57.244Z,99558.91
2022-11-18T06:33:23.950Z,99558.91
2022-11-18T06:35:50.750Z,99566.13
2022-11-18T06:38:17.480Z,99565.50
2022-11-18T06:40:44.767Z,99562.81
2022-11-18T06:43:31.461Z,99569.13
2022-11-18T06:46:18.743Z,99572.06
2022-11-18T06:48:45.690Z,99582.19
2022-11-18T06:51:12.591Z,99583.03
2022-11-18T06:53:39.748Z,99586.66
2022-11-18T06:56:10.147Z,99585.72
2022-11-18T06:58:36.915Z,99600.34
2022-11-18T07:01:19.695Z,99604.50
2022-11-18T07:03:47.021Z,99603.03
2022-11-18T07:06:18.365Z,99606.66
2022-11-18T07:08:45.562Z,99609.47
2022-11-18T07:11:17.961Z,99608.81
2022-11-18T07:13:46.009Z,99608.63
2022-11-18T07:16:16.750Z,99612.25
2022-11-18T07:18:45.627Z,99619.34
2022-11-18T07:21:28.827Z,99623.00
2022-11-18T07:23:57.167Z,99618.72
2022-11-18T07:26:24.385Z,99620.66
2022-11-18T07:28:51.514Z,99630.31
2022-11-18T07:31:20.915Z,99633.09
2022-11-18T07:33:49.254Z,99645.97
2022-11-18T07:36:20.224Z,99651.09
2022-11-18T07:38:47.603Z,99665.03
2022-11-18T07:41:21.110Z,99652.38
2022-11-18T07:43:50.401Z,99663.34
2022-11-18T07:46:22.982Z,99657.72
2022-11-18T07:48:53.430Z,99661.16
2022-11-18T07:51:24.318Z,99668.25
2022-11-18T07:53:52.031Z,99670.19
2022-11-18T07:56:20.389Z,99677.38
2022-11-18T07:58:47.662Z,99681.91
2022-11-18T08:01:21.300Z,99683.50
2022-11-18T08:03:49.030Z,99682.41
2022-11-18T08:06:19.087Z,99688.75
2022-11-18T08:08:47.197Z,99688.44
2022-11-18T08:11:22.353Z,99693.16
2022-11-18T08:13:51.791Z,99696.81
2022-11-18T08:16:24.762Z,99698.53
2022-11-18T08:18:52.451Z,99702.41
2022-11-18T08:21:21.930Z,99701.31
2022-11-18T08:23:58.117Z,99700.00
2022-11-18T08:26:26.212Z,99705.91
2022-11-18T08:28:54.020Z,99712.22
2022-11-18T08:31:28.399Z,99712.13
2022-11-18T08:34:02.084Z,99712.03
2022-11-18T08:36:33.574Z,99721.56
2022-11-18T08:39:03.326Z,99718.44
2022-11-18T08:41:39.115Z,99727.25
2022-11-18T08:44:07.849Z,99728.81
2022-11-18T08:46:34.628Z,99728.72
2022-11-18T08:49:01.974Z,99737.53
2022-11-18T08:51:29.128Z,99727.50
2022-11-18T08:53:56.164Z,99740.84
2022-11-18T08:56:24.697Z,99735.34
2022-11-18T08:58:52.556Z,99729.78
2022-11-18T09:01:19.510Z,99739.41
2022-11-18T09:03:48.380Z,99733.94
2022-11-18T09:06:22.702Z,99734.56
2022-11-18T09:08:49.630Z,99743.88
2022-11-18T09:11:21.767Z,99739.88
2022-11-18T09:16:40.462Z,99754.84
2022-11-18T09:19:32.117Z,99755.13
2022-11-18T09:21:54.006Z,99760.03
2022-11-18T09:24:21.030Z,99762.50
2022-11-18T09:26:49.863Z,99769.25
2022-11-18T09:29:16.987Z,99769.88
2022-11-18T09:31:43.837Z,99770.59
2022-11-18T09:34:10.622Z,99771.34
2022-11-18T09:36:37.844Z,99781.88
2022-11-18T09:39:04.675Z,99782.50
2022-11-18T09:42:07.164Z,99794.88
2022-11-18T09:45:25.205Z,99791.63
2022-11-18T09:47:57.972Z,99796.16
2022-11-18T09:53:26.204Z,99809.19
2022-11-18T09:55:55.422Z,99805.16
2022-11-18T09:58:32.568Z,99801.75
2022-11-18T10:00:59.801Z,99815.59
2022-11-18T10:03:31.670Z,99811.31
2022-11-18T10:06:24.198Z,99815.09
2022-11-18T10:09:00.198Z,99820.69
2022-11-18T10:11:54.014Z,99818.59
2022-11-18T10:14:29.545Z,99824.31
2022-11-18T10:17:20.433Z,99818.91
2022-11-18T10:20:11.876Z,99824.31
2022-11-18T10:23:16.811Z,99826.88
2022-11-18T10:25:43.965Z,99830.91
2022-11-18T10:28:29.616Z,99835.28
2022-11-18T10:31:12.248Z,99839.41
2022-11-18T10:33:39.824Z,99841.06
2022-11-18T10:36:28.122Z,99843.56
2022-11-18T10:39:07.078Z,99840.78
2022-11-18T10:41:51.630Z,99851.06
2022-11-18T10:44:41.614Z,99851.41
2022-11-18T10:47:31.168Z,99855.63
2022-11-18T10:50:01.592Z,99852.31
2022-11-18T10:52:30.366Z,99852.19
2022-11-18T10:55:20.134Z,99850.28
2022-11-18T10:57:50.199Z,99861.34
2022-11-18T11:00:42.411Z,99858.28
2022-11-18T11:03:38.801Z,99860.38
2022-11-18T11:06:26.845Z,99860.03
2022-11-18T11:09:01.285Z,99863.28
2022-11-18T11:11:34.789Z,99863.69
2022-11-18T11:14:17.899Z,99862.84
2022-11-18T11:17:34.127Z,99868.22
2022-11-18T11:20:16.854Z,99868.38
2022-11-18T11:22:46.946Z,99872.34
2022-11-18T11:25:24.162Z,99869.47
2022-11-18T11:31:16.987Z,99860.59
2022-11-18T11:34:35.816Z,99872.97
2022-11-18T11:37:38.027Z,99877.78
2022-11-18T11:40:39.227Z,99888.91
2022-11-18T11:43:20.997Z,99890.91
2022-11-18T11:46:23.016Z,99887.88
2022-11-18T11:49:18.752Z,99883.75
2022-11-18T11:52:02.519Z,99885.69
2022-11-18T11:54:52.530Z,99883.75
2022-11-18T11:57:56.080Z,99892.28
2022-11-18T12:00:23.500Z,99888.88
2022-11-18T12:03:22.321Z,99882.38
2022-11-18T12:05:49.068Z,99889.75
2022-11-18T12:08:29.376Z,99892.56
2022-11-18T12:11:41.888Z,99893.34
2022-11-18T12:14:27.325Z,99892.59
2022-11-18T12:17:18.379Z,99900.69
2022-11-18T12:19:45.113Z,99893.59
2022-11-18T12:22:11.808Z,99895.03
2022-11-18T12:24:44.863Z,99900.19
2022-11-18T12:27:23.507Z,99898.47
2022-11-18T12:29:52.697Z,99894.78
2022-11-18T12:32:55.925Z,99897.38
2022-11-18T12:35:28.548Z,99898.22
2022-11-18T12:37:55.226Z,99894.91
2022-11-18T12:40:51.804Z,99896.56
2022-11-18T12:43:50.707Z,99899.97
2022-11-18T12:46:26.684Z,99901.03
2022-11-18T12:48:53.502Z,99912.09
2022-11-18T12:51:24.629Z,99910.81
2022-11-18T12:53:53.740Z,99909.13
2022-11-18T12:56:36.527Z,99911.38
2022-11-18T12:59:03.381Z,99914.19
2022-11-18T13:01:36.306Z,99914.97
2022-11-18T13:04:21.012Z,99918.88
2022-11-18T13:06:48.391Z,99922.53
2022-11-18T13:09:24.630Z,99926.00
2022-11-18T13:12:08.625Z,99925.13
2022-11-18T13:15:03.148Z,99927.94
2022-11-18T13:17:52.614Z,99928.84
2022-11-18T13:20:35.650Z,99929.09
2022-11-18T13:23:40.871Z,99929.09
2022-11-18T13:26:44.972Z,99927.09
2022-11-18T13:29:53.853Z,99936.94
2022-11-18T13:32:27.520Z,99945.31
2022-11-18T13:35:10.508Z,99937.00
2022-11-18T13:38:00.128Z,99937.25
2022-11-18T13:41:04.242Z,99948.41
2022-11-18T13:43:33.008Z,99942.13
2022-11-18T13:46:19.469Z,99945.84
2022-11-18T13:48:59.700Z,99940.44
2022-11-18T13:51:26.839Z,99936.25
2022-11-18T13:53:54.019Z,99940.16
2022-11-18T13:56:33.288Z,99941.63
2022-11-18T13:59:16.923Z,99937.06
2022-11-18T14:01:46.922Z,99937.91
2022-11-18T14:04:22.951Z,99944.31
2022-11-18T14:06:50.206Z,99947.28
2022-11-18T14:09:25.755Z,99943.13
2022-11-18T14:12:14.479Z,99946.34
2022-11-18T14:14:43.158Z,99954.84
2022-11-18T14:17:27.683Z,99961.63
2022-11-18T14:19:58.406Z,99955.63
2022-11-18T14:22:32.497Z,99960.44
2022-11-18T14:25:19.921Z,99959.72
2022-11-18T14:27:53.189Z,99964.84
2022-11-18T14:30:36.400Z,99965.72
2022-11-18T14:33:29.479Z,99963.63
2022-11-18T14:36:13.950Z,99970.97
2022-11-18T14:41:49.377Z,99970.53
2022-11-18T14:44:21.754Z,99970.03
2022-11-18T14:46:59.589Z,99970.28
2022-11-18T14:49:30.777Z,99970.28
2022-11-18T14:51:58.492Z,99978.38
2022-11-18T14:54:27.576Z,99983.53
2022-11-18T14:57:01.577Z,99984.53
2022-11-18T14:59:29.216Z,99980.84
2022-11-18T15:01:57.119Z,99989.06
2022-11-18T15:04:25.283Z,99999.50
2022-11-18T15:06:52.207Z,100000.28
2022-11-18T15:09:19.113Z,100001.31
2022-11-18T15:11:45.832Z,99995.88
2022-11-18T15:14:12.580Z,100005.00
2022-11-18T15:16:39.308Z,100005.13
2022-11-18T15:19:11.931Z,100007.84
2022-11-18T15:21:38.676Z,100007.69
2022-11-18T15:24:05.657Z,100002.06
2022-11-18T15:26:50.383Z,100011.13
2022-11-18T15:29:22.987Z,100011.84
2022-11-18T15:31:50.469Z,100013.19
2022-11-18T15:34:20.418Z,100016.22
2022-11-18T15:36:48.576Z,100018.19
2022-11-18T15:39:15.739Z,100021.88
2022-11-18T15:41:43.078Z,100014.75
2022-11-18T15:44:11.803Z,100019.41
2022-11-18T15:46:39.229Z,100027.72
2022-11-18T15:49:09.516Z,100026.03
2022-11-18T15:51:37.194Z,100026.03
2022-11-18T15:54:04.078Z,100026.25
2022-11-18T15:56:31.179Z,100022.59
2022-11-18T15:59:02.263Z,100018.91
2022-11-18T16:01:32.966Z,100024.56
2022-11-18T16:04:00.033Z,100027.97
2022-11-18T16:06:27.600Z,100034.84
2022-11-18T16:08:59.552Z,100031.66
2022-11-18T16:11:48.347Z,100042.22
2022-11-18T16:14:19.224Z,100036.72
2022-11-18T16:16:49.400Z,100041.22
2022-11-18T16:19:19.493Z,100043.44
2022-11-18T16:21:50.917Z,100043.44
2022-11-18T16:24:24.209Z,100043.19
2022-11-18T16:26:51.572Z,100033.63
2022-11-18T16:29:19.310Z,100047.31
2022-11-18T16:31:52.919Z,100045.13
2022-11-18T16:34:27.136Z,100048.03
2022-11-18T16:36:57.901Z,100049.75
2022-11-18T16:39:27.882Z,100057.09
2022-11-18T16:42:07.984Z,100058.19
2022-11-18T16:44:37.285Z,100059.50
2022-11-18T16:47:12.487Z,100062.56
2022-11-18T16:49:41.802Z,100064.13
2022-11-18T16:52:09.232Z,100069.97
2022-11-18T16:54:41.031Z,100067.63
2022-11-18T16:57:11.390Z,100067.00
2022-11-18T16:59:38.235Z,100063.78
2022-11-18T17:02:06.139Z,100064.88
2022-11-18T17:04:36.237Z,100070.38
2022-11-18T17:07:03.282Z,100072.53
2022-11-18T17:09:30.309Z,100076.22
2022-11-18T17:12:03.219Z,100078.91
2022-11-18T17:14:30.556Z,100077.19
2022-11-18T17:16:59.836Z,100080.41
2022-11-18T17:19:26.678Z,100089.22
2022-11-18T17:21:53.623Z,100091.06
2022-11-18T17:24:23.342Z,100085.78
2022-11-18T17:26:53.148Z,100089.44
2022-11-18T17:29:20.855Z,100093.97
2022-11-18T17:31:47.981Z,100094.66
2022-11-18T17:34:16.021Z,100090.78
2022-11-18T17:36:43.392Z,100095.44
2022-11-18T17:39:13.294Z,100098.38
2022-11-18T17:41:58.491Z,100098.59
2022-11-18T17:44:25.450Z,100108.50
2022-11-18T17:46:52.267Z,100103.75
2022-11-18T17:49:21.396Z,100104.50
2022-11-18T17:51:48.792Z,100114.06
2022-11-18T17:54:16.255Z,100107.72
2022-11-18T17:56:43.566Z,100112.00
2022-11-18T17:59:10.662Z,100115.78
2022-11-18T18:01:37.552Z,100119.66
2022-11-18T18:04:04.589Z,100120.13
2022-11-18T18:06:31.505Z,100128.19
2022-11-18T18:08:59.062Z,100116.44
2022-11-18T18:11:27.852Z,100123.56
2022-11-18T18:14:13.404Z,100129.56
2022-11-18T18:16:48.271Z,100126.88
2022-11-18T18:19:19.027Z,100136.22
2022-11-18T18:21:46.688Z,100136.66
2022-11-18T18:24:16.448Z,100136.31
2022-11-18T18:26:43.401Z,100132.31
2022-11-18T18:29:12.537Z,100135.75
2022-11-18T18:31:39.597Z,100138.09
2022-11-18T18:34:06.381Z,100135.00
2022-11-18T18:36:34.035Z,100138.47
2022-11-18T18:39:02.172Z,100137.34
2022-11-18T18:41:29.129Z,100136.78
2022-11-18T18:43:56.675Z,100137.75
2022-11-18T18:46:28.803Z,100132.38
2022-11-18T18:49:00.292Z,100144.22
2022-11-18T18:51:30.284Z,100140.78
2022-11-18T18:53:59.229Z,100146.28
2022-11-18T18:56:27.341Z,100150.69
2022-11-18T18:58:56.613Z,100157.78
2022-11-18T19:01:24.216Z,100158.66
2022-11-18T19:03:56.979Z,100157.78
2022-11-18T19:06:57.883Z,100158.75
2022-11-18T19:09:21.417Z,100163.19
2022-11-18T19:12:06.963Z,100160.47
2022-11-18T19:14:35.506Z,100163.81
2022-11-18T19:17:09.541Z,100161.03
2022-11-18T19:19:56.663Z,100164.66
2022-11-18T19:22:24.529Z,100158.44
2022-11-18T19:24:51.577Z,100166.41
2022-11-18T19:27:19.817Z,100167.03
2022-11-18T19:29:47.483Z,100162.50
2022-11-18T19:32:14.643Z,100175.00
2022-11-18T19:34:41.865Z,100171.13
2022-11-18T19:37:08.669Z,100182.63
2022-11-18T19:39:35.526Z,100178.09
2022-11-18T19:42:04.586Z,100185.31
2022-11-18T19:44:31.282Z,100186.38
2022-11-18T19:46:57.988Z,100187.28
2022-11-18T19:49:24.822Z,100188.03
2022-11-18T19:51:51.527Z,100195.09
2022-11-18T19:54:18.266Z,100196.09
2022-11-18T19:56:45.102Z,100191.66
2022-11-18T19:59:12.939Z,100192.66
2022-11-18T20:01:40.311Z,100201.69
2022-11-18T20:04:07.641Z,100203.63
2022-11-18T20:06:36.608Z,100201.94
2022-11-18T20:09:08.336Z,100201.28
2022-11-18T20:11:35.285Z,100203.19
2022-11-18T20:14:02.498Z,100207.19
2022-11-18T20:16:29.330Z,100213.78
2022-11-18T20:19:07.854Z,100214.94
2022-11-18T20:21:45.021Z,100207.91
2022-11-18T20:24:18.447Z,100207.06
2022-11-18T20:26:45.802Z,100202.78
2022-11-18T20:29:13.514Z,100218.28
2022-11-18T20:31:41.133Z,100218.28
2022-11-18T20:34:12.135Z,100232.13
2022-11-18T20:36:39.008Z,100228.78
2022-11-18T20:39:13.115Z,100237.41
2022-11-18T20:41:39.884Z,100227.81
2022-11-18T20:44:06.775Z,100229.22
2022-11-18T20:46:34.444Z,100235.03
2022-11-18T20:49:01.734Z,100244.28
2022-11-18T20:51:29.440Z,100241.88
2022-11-18T20:53:58.097Z,100252.94
2022-11-18T20:56:27.848Z,100241.22
2022-11-18T20:58:57.327Z,100259.28
2022-11-18T21:01:27.990Z,100249.81
2022-11-18T21:03:58.241Z,100259.72
2022-11-18T21:06:29.543Z,100249.16
2022-11-18T21:09:03.223Z,100249.16
2022-11-18T21:11:34.477Z,100263.78
2022-11-18T21:14:24.614Z,100261.09
2022-11-18T21:16:55.150Z,100260.34
2022-11-18T21:19:22.621Z,100264.72
2022-11-18T21:21:52.310Z,100268.41
2022-11-18T21:24:22.899Z,100262.22
2022-11-18T21:26:54.360Z,100272.03
2022-11-18T21:29:22.764Z,100274.25
2022-11-18T21:31:50.178Z,100282.63
2022-11-18T21:34:18.115Z,100280.56
2022-11-18T21:36:49.156Z,100281.91
2022-11-18T21:39:19.987Z,100285.78
2022-11-18T21:41:52.010Z,100292.00
2022-11-18T21:44:21.822Z,100284.44
2022-11-18T21:46:48.658Z,100287.50
2022-11-18T21:49:15.399Z,100290.59
2022-11-18T21:51:44.075Z,100293.78
2022-11-18T21:54:12.498Z,100293.09
2022-11-18T21:56:39.298Z,100298.75
2022-11-18T21:59:07.581Z,100291.75
2022-11-18T22:01:35.691Z,100300.00
2022-11-18T22:04:05.076Z,100305.69
2022-11-18T22:06:34.447Z,100305.38
2022-11-18T22:09:04.296Z,100309.59
2022-11-18T22:11:31.333Z,100311.53
2022-11-18T22:13:58.170Z,100311.88
2022-11-18T22:16:26.828Z,100317.91
2022-11-18T22:19:01.473Z,100315.97
2022-11-18T22:21:32.015Z,100324.47
2022-11-18T22:24:00.763Z,100334.72
2022-11-18T22:26:29.278Z,100328.16
2022-11-18T22:28:58.294Z,100337.72
2022-11-18T22:31:27.986Z,100341.75
2022-11-18T22:33:56.294Z,100350.13
2022-11-18T22:36:26.345Z,100342.63
2022-11-18T22:38:54.702Z,100346.72
2022-11-18T22:41:45.657Z,100351.63
2022-11-18T22:44:15.297Z,100355.88
2022-11-18T22:46:44.554Z,100357.25
2022-11-18T22:49:12.908Z,100352.16
2022-11-18T22:51:40.784Z,100355.19
2022-11-18T22:54:38.392Z,100355.59
2022-11-18T22:56:55.858Z,100361.38
2022-11-18T22:59:23.688Z,100361.88
2022-11-18T23:01:52.051Z,100371.72
2022-11-18T23:04:18.911Z,100373.75
2022-11-18T23:06:45.704Z,100373.94
2022-11-18T23:09:12.814Z,100364.44
2022-11-18T23:11:57.935Z,100373.41
2022-11-18T23:14:24.774Z,100373.75
2022-11-18T23:16:51.639Z,100381.91
2022-11-18T23:19:18.902Z,100394.66
2022-11-18T23:21:46.297Z,100395.63
2022-11-18T23:24:18.894Z,100395.44
2022-11-18T23:26:46.277Z,100399.09
2022-11-18T23:29:15.018Z,100398.38
2022-11-18T23:31:44.422Z,100399.41
2022-11-18T23:34:15.105Z,100394.22
2022-11-18T23:36:42.780Z,100406.88
2022-11-18T23:39:09.815Z,100409.78
2022-11-18T23:41:36.724Z,100409.78
2022-11-18T23:44:04.420Z,100414.53
2022-11-18T23:46:32.096Z,100414.69
2022-11-18T23:48:58.997Z,100416.56
2022-11-18T23:51:26.580Z,100423.16
2022-11-18T23:53:57.579Z,100414.44
2022-11-18T23:56:27.274Z,100423.56
2022-11-18T23:58:56.793Z,100420.88
